Time;durP1;ratioP1;P1;durP2;ratioP2;P2;SDS_P1;SDS_P2;PMS_P1;PMS_P2;Temp;Humidity;BMP_temperature;BMP_pressure;BME280_temperature;BME280_humidity;BME280_pressure;Samples;Min_cycle;Max_cycle;Signal;HPM_P1;HPM_P2
2022/11/23 00:02:09;;;;;;;2.23;1.63;;;16.30;64.70;17.40;98937.00;;;;5069379;28;20180;-48
2022/11/23 00:04:34;;;;;;;1.90;1.70;;;16.30;64.70;17.40;98942.00;;;;5070086;28;20198;-48
2022/11/23 00:07:00;;;;;;;2.40;1.70;;;16.30;64.80;17.40;98939.00;;;;5069808;28;20170;-49
2022/11/23 00:09:26;;;;;;;1.83;1.40;;;16.30;64.80;17.40;98940.00;;;;5070000;28;20706;-49
2022/11/23 00:11:52;;;;;;;1.63;1.43;;;16.30;64.90;17.40;98928.00;;;;5069454;28;20251;-51
2022/11/23 00:14:17;;;;;;;3.10;1.80;;;16.20;64.80;17.40;98933.00;;;;5069627;28;20166;-50
2022/11/23 00:16:43;;;;;;;1.73;1.50;;;16.20;64.80;17.40;98936.00;;;;5069557;28;20235;-50
2022/11/23 00:19:09;;;;;;;1.87;1.60;;;16.20;64.90;17.40;98936.00;;;;5069777;28;20232;-50
2022/11/23 00:21:34;;;;;;;2.03;1.80;;;16.30;64.90;17.40;98934.00;;;;5069454;28;20178;-48
2022/11/23 00:24:00;;;;;;;2.50;1.47;;;16.20;64.70;17.40;98947.00;;;;5069269;28;20223;-48
2022/11/23 00:26:26;;;;;;;2.53;1.60;;;16.20;64.70;17.40;98944.00;;;;5051621;28;20205;-51
2022/11/23 00:28:52;;;;;;;2.27;1.60;;;16.20;64.70;17.40;98939.00;;;;5069388;28;20161;-49
2022/11/23 00:31:18;;;;;;;2.67;1.70;;;16.20;64.60;17.40;98941.00;;;;5069153;28;20256;-48
2022/11/23 00:33:52;;;;;;;1.93;1.60;;;16.20;64.70;17.40;98943.00;;;;5068989;28;20254;-49
2022/11/23 00:36:18;;;;;;;1.83;1.60;;;16.20;64.60;17.40;98945.00;;;;5068998;28;20189;-49
2022/11/23 00:38:44;;;;;;;1.73;1.50;;;16.20;64.60;17.40;98937.00;;;;5071066;28;20166;-48
2022/11/23 00:41:15;;;;;;;2.10;1.70;;;16.20;64.60;17.40;98936.00;;;;5073318;28;20196;-49
2022/11/23 00:43:41;;;;;;;2.10;1.57;;;16.20;64.50;17.30;98939.00;;;;5069078;28;20194;-50
2022/11/23 00:46:14;;;;;;;1.60;1.50;;;16.20;64.60;17.40;98947.00;;;;5069111;28;20204;-50
2022/11/23 00:48:41;;;;;;;1.60;1.50;;;16.20;64.70;17.30;98942.00;;;;5069062;28;20252;-49
2022/11/23 00:51:08;;;;;;;2.57;1.60;;;16.20;64.70;17.30;98951.00;;;;5069228;28;20176;-49
2022/11/23 00:53:35;;;;;;;1.70;1.60;;;16.20;64.70;17.30;98949.00;;;;5068733;28;20820;-48
2022/11/23 00:56:01;;;;;;;1.73;1.43;;;16.10;64.50;17.30;98957.00;;;;5068921;28;20586;-50
2022/11/23 00:58:27;;;;;;;1.83;1.30;;;16.10;64.60;17.30;98958.00;;;;5051102;28;20248;-49
2022/11/23 01:01:09;;;;;;;1.70;1.60;;;16.10;64.50;17.30;98953.00;;;;5069026;28;20311;-50
2022/11/23 01:03:37;;;;;;;1.50;1.40;;;16.20;64.80;17.30;98968.00;;;;5068514;28;20193;-51
2022/11/23 01:06:11;;;;;;;1.93;1.40;;;16.10;64.80;17.30;98964.00;;;;5068908;28;20186;-48
2022/11/23 01:08:37;;;;;;;1.40;1.30;;;16.10;64.60;17.30;98964.00;;;;5068916;28;20159;-49
2022/11/23 01:11:12;;;;;;;1.53;1.40;;;16.10;64.70;17.30;98974.00;;;;5068228;28;20172;-49
2022/11/23 01:13:39;;;;;;;2.73;1.80;;;16.10;64.70;17.30;98968.00;;;;5068729;28;20168;-49
2022/11/23 01:16:17;;;;;;;1.93;1.60;;;16.10;64.80;17.30;98966.00;;;;5068331;28;20277;-49
2022/11/23 01:18:42;;;;;;;1.90;1.60;;;16.10;64.80;17.20;98975.00;;;;5068680;28;20178;-48
2022/11/23 01:21:08;;;;;;;2.00;1.60;;;16.10;64.80;17.20;98970.00;;;;5050274;28;20536;-51
2022/11/23 01:23:34;;;;;;;2.10;1.80;;;16.10;64.80;17.20;98976.00;;;;5068602;28;20193;-50
2022/11/23 01:26:04;;;;;;;3.67;1.80;;;16.10;64.80;17.20;98978.00;;;;5068631;28;20561;-49
2022/11/23 01:28:30;;;;;;;1.60;1.50;;;16.00;64.70;17.20;98972.00;;;;5050404;28;20185;-50
2022/11/23 01:31:06;;;;;;;1.70;1.60;;;16.10;64.90;17.20;98982.00;;;;5050522;28;20261;-47
2022/11/23 01:33:32;;;;;;;1.67;1.27;;;16.00;64.80;17.20;98984.00;;;;5068095;28;20168;-49
2022/11/23 01:35:58;;;;;;;1.50;1.40;;;16.00;64.80;17.20;98991.00;;;;5068125;28;20186;-49
2022/11/23 01:38:23;;;;;;;2.00;1.60;;;16.00;64.90;17.10;98984.00;;;;5068344;28;20170;-49
2022/11/23 01:40:49;;;;;;;1.30;1.20;;;16.00;64.90;17.10;98982.00;;;;5068321;28;20173;-49
2022/11/23 01:43:16;;;;;;;1.70;1.47;;;16.00;64.90;17.10;98989.00;;;;5068208;28;20174;-50
2022/11/23 01:45:51;;;;;;;1.40;1.30;;;16.00;65.00;17.10;98995.00;;;;5068384;28;20201;-47
2022/11/23 01:48:24;;;;;;;1.50;1.40;;;15.90;64.90;17.10;98983.00;;;;5068570;28;20157;-49
2022/11/23 01:50:51;;;;;;;1.30;1.20;;;15.90;64.90;17.10;99002.00;;;;5050789;28;20254;-50
2022/11/23 01:53:17;;;;;;;2.03;1.60;;;16.00;65.00;17.10;98994.00;;;;5050015;28;20168;-48
2022/11/23 01:55:45;;;;;;;2.50;1.50;;;16.00;65.00;17.10;98995.00;;;;5049933;28;20185;-50
2022/11/23 01:58:10;;;;;;;1.60;1.30;;;15.90;64.90;17.10;98988.00;;;;5050678;28;20166;-48
2022/11/23 02:00:36;;;;;;;1.57;1.30;;;15.90;64.90;17.10;98992.00;;;;5049962;28;20675;-50
2022/11/23 02:03:02;;;;;;;2.00;1.63;;;16.00;65.10;17.10;99006.00;;;;5068071;28;20244;-49
2022/11/23 02:05:33;;;;;;;1.57;1.47;;;15.90;65.00;17.10;99004.00;;;;5017037;28;20748;-49
2022/11/23 02:07:59;;;;;;;2.30;1.40;;;15.90;65.00;17.00;98999.00;;;;5033810;28;20174;-49
2022/11/23 02:10:24;;;;;;;1.50;1.40;;;15.90;65.00;17.00;99005.00;;;;5050028;28;20690;-49
2022/11/23 02:12:50;;;;;;;1.50;1.30;;;15.90;65.00;17.00;99007.00;;;;5049977;28;20253;-48
2022/11/23 02:15:16;;;;;;;1.80;1.47;;;15.90;65.00;17.00;99000.00;;;;5033523;28;20200;-49
2022/11/23 02:17:42;;;;;;;1.40;1.30;;;15.90;65.00;17.00;98998.00;;;;5050177;28;20204;-49
2022/11/23 02:20:15;;;;;;;1.40;1.30;;;15.80;64.90;17.00;98995.00;;;;5033371;28;20177;-48
2022/11/23 02:23:17;;;;;;;1.97;1.53;;;15.80;65.00;17.00;99007.00;;;;5034409;28;20193;-50
2022/11/23 02:25:43;;;;;;;2.33;1.57;;;15.80;65.10;17.00;99003.00;;;;5040506;28;20193;-49
2022/11/23 02:28:15;;;;;;;2.43;1.37;;;15.80;65.20;17.00;99013.00;;;;5071726;28;20177;-52
2022/11/23 02:30:41;;;;;;;1.73;1.40;;;15.80;65.30;17.00;99010.00;;;;5037717;28;20162;-51
2022/11/23 02:33:07;;;;;;;1.20;1.10;;;15.80;65.40;17.00;99015.00;;;;5036666;28;20177;-49
2022/11/23 02:35:33;;;;;;;3.03;1.47;;;15.80;65.40;17.00;99011.00;;;;5071201;28;20193;-50
2022/11/23 02:38:01;;;;;;;2.50;1.40;;;15.80;65.30;17.00;99015.00;;;;5071483;28;20170;-50
2022/11/23 02:40:33;;;;;;;1.77;1.30;;;15.80;66.20;17.00;99013.00;;;;5020625;28;20174;-50
2022/11/23 02:42:59;;;;;;;1.30;1.17;;;15.80;65.40;17.00;99013.00;;;;5071245;28;20615;-51
2022/11/23 02:45:42;;;;;;;1.40;1.30;;;15.80;65.40;17.00;99025.00;;;;5071074;28;20307;-56
2022/11/23 02:48:08;;;;;;;1.40;1.30;;;15.80;65.40;17.00;99020.00;;;;5053441;28;20261;-49
2022/11/23 02:50:33;;;;;;;1.40;1.30;;;15.70;65.20;17.00;99020.00;;;;5071280;28;20610;-49
2022/11/23 02:52:59;;;;;;;2.07;1.43;;;15.80;65.40;17.00;99022.00;;;;5071051;28;20265;-52
2022/11/23 02:55:25;;;;;;;1.23;1.10;;;15.80;65.40;17.00;99013.00;;;;5070999;28;20580;-50
2022/11/23 02:57:51;;;;;;;1.20;1.10;;;15.70;65.30;17.00;99014.00;;;;5070925;28;20177;-48
2022/11/23 03:00:16;;;;;;;1.50;1.40;;;15.70;65.20;17.00;99022.00;;;;5052991;28;20669;-49
2022/11/23 03:02:42;;;;;;;1.40;1.20;;;15.70;65.20;16.90;99019.00;;;;5070620;28;20256;-49
2022/11/23 03:05:08;;;;;;;1.60;1.50;;;15.70;65.20;16.90;99020.00;;;;5070631;28;20210;-49
2022/11/23 03:07:34;;;;;;;1.50;1.40;;;15.80;65.40;16.90;99012.00;;;;5070879;28;20170;-50
2022/11/23 03:09:59;;;;;;;2.30;1.80;;;15.70;65.20;16.90;99025.00;;;;5071035;28;20258;-47
2022/11/23 03:12:25;;;;;;;2.57;1.50;;;15.80;65.30;16.90;99013.00;;;;5071070;28;20173;-51
2022/11/23 03:14:51;;;;;;;1.43;1.30;;;15.80;65.30;16.90;99015.00;;;;5071134;28;20193;-50
2022/11/23 03:17:16;;;;;;;2.13;1.30;;;15.70;65.30;16.90;99017.00;;;;5071063;28;20216;-49
2022/11/23 03:19:42;;;;;;;1.37;1.20;;;15.70;65.20;16.90;99029.00;;;;5071256;28;20192;-49
2022/11/23 03:22:08;;;;;;;1.03;1.03;;;15.70;65.30;16.90;99022.00;;;;5070300;28;20181;-50
2022/11/23 03:24:33;;;;;;;1.13;1.07;;;15.70;65.40;16.90;99024.00;;;;5070708;28;20209;-49
2022/11/23 03:26:59;;;;;;;2.57;1.40;;;15.70;65.40;16.90;99022.00;;;;5071334;28;20165;-48
2022/11/23 03:29:25;;;;;;;1.60;1.50;;;15.60;66.00;16.90;99026.00;;;;5070572;28;20237;-49
2022/11/23 03:31:54;;;;;;;1.83;1.33;;;15.70;65.30;16.90;99022.00;;;;5069915;28;20657;-50
2022/11/23 03:34:19;;;;;;;1.17;1.07;;;15.60;65.10;16.90;99027.00;;;;5069603;28;20253;-50
2022/11/23 03:36:45;;;;;;;1.27;1.17;;;15.70;65.20;16.90;99033.00;;;;5070135;28;20189;-49
2022/11/23 03:39:11;;;;;;;1.53;1.43;;;15.70;65.20;16.90;99029.00;;;;5070285;28;20269;-50
2022/11/23 03:41:37;;;;;;;1.60;1.40;;;15.60;65.00;16.90;99034.00;;;;5070213;28;20516;-48
2022/11/23 03:44:03;;;;;;;1.53;1.33;;;15.70;65.20;16.90;99036.00;;;;5070209;28;20682;-50
2022/11/23 03:46:29;;;;;;;1.40;1.30;;;15.60;65.00;16.80;99031.00;;;;5070263;28;20190;-50
2022/11/23 03:48:54;;;;;;;1.30;1.20;;;15.60;65.00;16.80;99037.00;;;;5069963;28;20566;-51
2022/11/23 03:51:20;;;;;;;1.63;1.30;;;15.70;65.00;16.80;99032.00;;;;5069920;28;20169;-49
2022/11/23 03:53:46;;;;;;;1.77;1.60;;;15.60;65.00;16.80;99037.00;;;;5069802;28;20177;-50
2022/11/23 03:56:11;;;;;;;1.37;1.27;;;15.60;65.00;16.80;99023.00;;;;5069882;28;20213;-48
2022/11/23 03:58:37;;;;;;;1.30;1.20;;;15.60;65.00;16.80;99028.00;;;;5069886;28;20178;-49
2022/11/23 04:01:03;;;;;;;1.07;0.97;;;15.70;65.10;16.80;99027.00;;;;5069689;28;20223;-51
2022/11/23 04:03:28;;;;;;;1.37;1.20;;;15.60;65.00;16.80;99018.00;;;;5069663;28;20166;-49
2022/11/23 04:05:54;;;;;;;1.77;1.03;;;15.60;65.00;16.80;99024.00;;;;5069546;28;20192;-48
2022/11/23 04:08:20;;;;;;;1.30;1.20;;;15.60;65.10;16.80;99030.00;;;;5069654;28;20641;-48
2022/11/23 04:10:46;;;;;;;2.17;1.20;;;15.60;65.10;16.80;99028.00;;;;5069665;28;20193;-49
2022/11/23 04:13:11;;;;;;;1.43;1.33;;;15.60;65.10;16.80;99038.00;;;;5069734;28;20177;-49
2022/11/23 04:15:37;;;;;;;1.23;1.20;;;15.50;65.00;16.80;99033.00;;;;5069819;28;20853;-51
2022/11/23 04:18:03;;;;;;;1.30;1.20;;;15.60;65.10;16.80;99032.00;;;;5069451;28;20186;-49
2022/11/23 04:20:29;;;;;;;1.30;1.20;;;15.60;65.00;16.80;99036.00;;;;5069486;28;20257;-47
2022/11/23 04:22:54;;;;;;;1.20;1.10;;;15.60;65.10;16.80;99037.00;;;;5069250;28;20271;-49
2022/11/23 04:25:20;;;;;;;1.53;1.43;;;15.60;65.10;16.80;99032.00;;;;5069270;28;20202;-50
2022/11/23 04:27:46;;;;;;;2.60;1.30;;;15.60;65.10;16.70;99025.00;;;;5069411;28;20173;-48
2022/11/23 04:30:12;;;;;;;4.93;1.60;;;15.50;65.40;16.70;99031.00;;;;5069268;28;20165;-50
2022/11/23 04:32:37;;;;;;;15.33;1.70;;;15.50;66.00;16.70;99036.00;;;;5069153;28;20274;-51
2022/11/23 04:35:03;;;;;;;3.50;1.40;;;15.50;65.80;16.70;99030.00;;;;5069083;28;20198;-48
2022/11/23 04:37:29;;;;;;;4.63;1.20;;;15.50;65.80;16.70;99034.00;;;;5068914;28;20288;-50
2022/11/23 04:39:55;;;;;;;4.57;1.50;;;15.50;65.70;16.70;99024.00;;;;5068931;28;20180;-49
2022/11/23 04:42:21;;;;;;;2.43;1.30;;;15.50;65.80;16.70;99026.00;;;;5068815;28;20169;-49
2022/11/23 04:44:46;;;;;;;2.43;1.30;;;15.50;65.70;16.70;99042.00;;;;5068771;28;20197;-49
2022/11/23 04:47:12;;;;;;;2.00;1.30;;;15.50;65.60;16.70;99021.00;;;;5052596;28;20179;-49
2022/11/23 04:49:38;;;;;;;2.90;1.57;;;15.50;65.60;16.70;99025.00;;;;5049552;28;20578;-50
2022/11/23 04:52:04;;;;;;;1.90;1.10;;;15.50;65.40;16.70;99037.00;;;;5048859;28;20170;-48
2022/11/23 04:54:29;;;;;;;2.33;1.40;;;15.50;65.40;16.70;99026.00;;;;5049270;28;20178;-49
2022/11/23 04:56:55;;;;;;;1.40;1.30;;;15.50;65.30;16.70;99028.00;;;;5049347;28;20201;-49
2022/11/23 04:59:21;;;;;;;4.73;1.70;;;15.50;65.30;16.70;99036.00;;;;5049269;28;20206;-48
2022/11/23 05:01:50;;;;;;;1.30;1.20;;;15.50;65.30;16.60;99037.00;;;;5048947;28;20520;-50
2022/11/23 05:04:18;;;;;;;4.60;1.50;;;15.50;65.30;16.60;99040.00;;;;5049203;28;20572;-50
2022/11/23 05:06:44;;;;;;;2.10;1.50;;;15.50;65.20;16.60;99038.00;;;;5049071;28;20186;-49
2022/11/23 05:09:09;;;;;;;2.57;1.43;;;15.40;65.10;16.60;99038.00;;;;5049188;28;20171;-49
2022/11/23 05:11:35;;;;;;;6.63;1.83;;;15.40;65.10;16.60;99033.00;;;;5049427;28;20170;-50
2022/11/23 05:14:01;;;;;;;3.57;1.60;;;15.40;65.00;16.60;99041.00;;;;5052420;28;20677;-48
2022/11/23 05:16:27;;;;;;;4.93;1.60;;;15.40;65.00;16.60;99038.00;;;;5068303;28;20216;-52
2022/11/23 05:18:52;;;;;;;1.97;1.40;;;15.40;65.00;16.60;99048.00;;;;5068921;28;20169;-51
2022/11/23 05:21:18;;;;;;;2.77;1.40;;;15.40;64.80;16.60;99044.00;;;;5068336;28;20686;-48
2022/11/23 05:23:44;;;;;;;3.43;1.67;;;15.40;64.90;16.60;99043.00;;;;5068755;28;20186;-49
2022/11/23 05:26:09;;;;;;;3.67;1.80;;;15.40;64.90;16.60;99041.00;;;;5068381;28;20554;-48
2022/11/23 05:28:36;;;;;;;3.33;1.40;;;15.40;65.40;16.60;99049.00;;;;5068669;28;20193;-49
2022/11/23 05:31:03;;;;;;;3.57;1.90;;;15.40;65.40;16.60;99051.00;;;;5068725;28;20142;-50
2022/11/23 05:33:28;;;;;;;5.40;2.07;;;15.40;65.60;16.60;99049.00;;;;5068489;28;20702;-50
2022/11/23 05:35:54;;;;;;;1.63;1.37;;;15.30;65.70;16.60;99056.00;;;;5068090;28;20344;-49
2022/11/23 05:38:20;;;;;;;4.90;1.63;;;15.40;65.80;16.50;99061.00;;;;5068381;28;20154;-49
2022/11/23 05:40:45;;;;;;;12.00;1.80;;;15.40;65.80;16.50;99054.00;;;;5068435;28;20542;-50
2022/11/23 05:43:11;;;;;;;4.40;1.83;;;15.40;65.90;16.50;99055.00;;;;5068438;28;20169;-51
2022/11/23 05:45:37;;;;;;;2.73;1.87;;;15.40;66.00;16.50;99064.00;;;;5067887;28;20197;-50
2022/11/23 05:48:03;;;;;;;5.20;1.97;;;15.40;66.10;16.50;99061.00;;;;5068344;28;20793;-48
2022/11/23 05:50:29;;;;;;;7.13;2.13;;;15.40;66.10;16.50;99071.00;;;;5068098;28;20181;-49
2022/11/23 05:52:58;;;;;;;5.60;2.30;;;15.30;66.10;16.50;99059.00;;;;5050172;28;20166;-49
2022/11/23 05:55:25;;;;;;;5.03;2.07;;;15.30;66.10;16.50;99074.00;;;;5067957;28;20197;-49
2022/11/23 05:57:51;;;;;;;7.03;2.10;;;15.30;66.10;16.50;99069.00;;;;5069905;28;20212;-49
2022/11/23 06:00:17;;;;;;;10.47;2.57;;;15.30;66.10;16.50;99064.00;;;;5072700;28;20197;-50
2022/11/23 06:02:42;;;;;;;5.90;2.90;;;15.30;66.20;16.50;99062.00;;;;5072767;28;20162;-49
2022/11/23 06:05:08;;;;;;;8.67;2.30;;;15.30;66.20;16.50;99064.00;;;;5053885;28;20283;-49
2022/11/23 06:07:34;;;;;;;7.50;2.60;;;15.30;66.20;16.50;99063.00;;;;5054919;28;20170;-49
2022/11/23 06:10:00;;;;;;;4.90;2.30;;;15.30;66.10;16.50;99064.00;;;;5072507;28;20634;-51
2022/11/23 06:12:27;;;;;;;6.13;2.50;;;15.30;66.10;16.50;99069.00;;;;5072450;28;20216;-49
2022/11/23 06:14:53;;;;;;;8.87;2.30;;;15.30;66.00;16.50;99068.00;;;;5071702;28;20627;-49
2022/11/23 06:17:18;;;;;;;4.67;2.07;;;15.30;66.00;16.50;99060.00;;;;5071918;28;20365;-49
2022/11/23 06:19:44;;;;;;;4.83;2.30;;;15.30;65.80;16.50;99063.00;;;;5071786;28;20256;-49
2022/11/23 06:22:10;;;;;;;7.00;2.17;;;15.30;65.80;16.50;99065.00;;;;5071814;28;20174;-51
2022/11/23 06:24:36;;;;;;;8.40;2.20;;;15.30;65.80;16.50;99067.00;;;;5071055;28;20193;-48
2022/11/23 06:27:01;;;;;;;6.53;2.10;;;15.30;65.80;16.40;99064.00;;;;5072022;28;20177;-49
2022/11/23 06:29:27;;;;;;;3.97;2.07;;;15.30;65.70;16.40;99065.00;;;;5071719;28;20418;-49
2022/11/23 06:31:53;;;;;;;5.37;1.93;;;15.20;65.60;16.40;99062.00;;;;5071603;28;20603;-48
2022/11/23 06:34:19;;;;;;;5.00;1.90;;;15.20;65.60;16.40;99060.00;;;;5071333;28;20430;-49
2022/11/23 06:36:45;;;;;;;3.30;1.97;;;15.20;65.60;16.40;99061.00;;;;5061471;28;20289;-49
2022/11/23 06:39:10;;;;;;;5.17;2.30;;;15.20;65.80;16.40;99062.00;;;;5051322;28;20174;-49
2022/11/23 06:41:36;;;;;;;5.20;2.20;;;15.20;66.00;16.40;99071.00;;;;5051420;28;20178;-49
2022/11/23 06:44:02;;;;;;;4.77;2.00;;;15.10;66.00;16.40;99067.00;;;;5051239;28;20206;-49
2022/11/23 06:46:28;;;;;;;4.87;1.93;;;15.10;66.00;16.40;99063.00;;;;5051298;28;20194;-49
2022/11/23 06:48:53;;;;;;;6.43;2.40;;;15.20;66.10;16.40;99058.00;;;;5051266;28;20575;-49
2022/11/23 06:51:19;;;;;;;3.93;1.90;;;15.20;66.00;16.40;99062.00;;;;5051452;28;20293;-49
2022/11/23 06:53:45;;;;;;;5.27;2.03;;;15.20;66.00;16.40;99076.00;;;;5051783;28;20170;-53
2022/11/23 06:56:10;;;;;;;5.40;2.40;;;15.20;66.10;16.40;99070.00;;;;5051017;28;20248;-49
2022/11/23 06:58:36;;;;;;;4.40;1.93;;;15.20;66.10;16.40;99067.00;;;;5051354;28;20691;-49
2022/11/23 07:01:05;;;;;;;3.60;2.03;;;15.20;66.20;16.30;99074.00;;;;5051451;28;20166;-49
2022/11/23 07:03:31;;;;;;;4.67;1.93;;;15.20;67.00;16.30;99073.00;;;;5050873;28;20170;-49
2022/11/23 07:05:56;;;;;;;3.97;2.20;;;15.20;66.20;16.30;99071.00;;;;5033202;28;20193;-49
2022/11/23 07:08:22;;;;;;;2.80;1.90;;;15.20;66.10;16.30;99066.00;;;;5051347;28;20171;-49
2022/11/23 07:10:48;;;;;;;3.60;2.00;;;15.20;66.10;16.30;99070.00;;;;5032598;28;20737;-48
2022/11/23 07:13:14;;;;;;;4.43;1.80;;;15.20;66.10;16.30;99080.00;;;;5050744;28;20643;-50
2022/11/23 07:15:40;;;;;;;4.07;2.13;;;15.20;66.10;16.30;99073.00;;;;5050667;28;20190;-49
2022/11/23 07:18:06;;;;;;;2.97;1.87;;;15.10;66.00;16.30;99079.00;;;;5050147;28;20186;-49
2022/11/23 07:20:32;;;;;;;3.40;1.97;;;15.10;66.10;16.30;99084.00;;;;5050974;28;20201;-50
2022/11/23 07:23:03;;;;;;;2.70;1.80;;;15.10;66.00;16.30;99084.00;;;;5051184;28;20193;-48
2022/11/23 07:25:29;;;;;;;4.87;1.90;;;15.20;66.20;16.30;99085.00;;;;5050864;28;20293;-47
2022/11/23 07:27:58;;;;;;;2.20;1.67;;;15.10;66.10;16.30;99093.00;;;;5050995;28;20520;-48
2022/11/23 07:30:25;;;;;;;3.80;1.70;;;15.10;66.10;16.30;99083.00;;;;5050643;28;20177;-49
2022/11/23 07:32:51;;;;;;;2.67;1.83;;;15.10;66.10;16.30;99081.00;;;;5050245;28;20166;-49
2022/11/23 07:35:18;;;;;;;3.53;1.90;;;15.10;66.10;16.30;99094.00;;;;5050435;28;20192;-47
2022/11/23 07:37:44;;;;;;;2.50;1.77;;;15.10;66.20;16.30;99093.00;;;;5050849;28;20779;-50
2022/11/23 07:40:10;;;;;;;3.40;1.80;;;15.10;66.10;16.30;99092.00;;;;5050641;28;20766;-51
2022/11/23 07:42:35;;;;;;;2.30;1.70;;;15.10;66.10;16.30;99097.00;;;;5050523;28;20172;-50
2022/11/23 07:45:03;;;;;;;2.10;1.80;;;15.10;66.20;16.30;99097.00;;;;5049743;28;20206;-51
2022/11/23 07:47:29;;;;;;;2.23;1.63;;;15.10;66.20;16.30;99109.00;;;;5050295;28;20631;-48
2022/11/23 07:49:54;;;;;;;2.03;1.60;;;15.10;66.10;16.30;99116.00;;;;5050650;28;20197;-48
2022/11/23 07:52:20;;;;;;;2.53;1.90;;;15.10;66.20;16.30;99126.00;;;;5050190;28;20166;-49
2022/11/23 07:54:46;;;;;;;3.40;1.70;;;15.10;66.00;16.30;99117.00;;;;5049929;28;20213;-48
2022/11/23 07:57:11;;;;;;;2.97;1.83;;;15.10;66.20;16.30;99124.00;;;;5050224;28;20295;-48
2022/11/23 07:59:37;;;;;;;2.93;2.07;;;15.00;66.00;16.30;99133.00;;;;5052591;28;20765;-47
2022/11/23 08:02:03;;;;;;;2.17;1.70;;;15.00;66.00;16.20;99125.00;;;;5066184;28;20246;-50
2022/11/23 08:04:29;;;;;;;3.03;1.60;;;15.00;66.20;16.20;99051.00;;;;5055790;28;20225;-49
2022/11/23 08:06:54;;;;;;;3.17;1.80;;;15.00;66.50;16.20;99135.00;;;;5055215;28;20230;-49
2022/11/23 08:09:20;;;;;;;4.17;2.00;;;15.00;66.40;16.20;99135.00;;;;5059017;28;20158;-48
2022/11/23 08:11:46;;;;;;;2.83;1.80;;;15.00;66.50;16.20;99143.00;;;;5061670;28;20181;-48
2022/11/23 08:14:11;;;;;;;3.70;1.90;;;15.00;66.40;16.20;99135.00;;;;5058479;28;20853;-49
2022/11/23 08:16:37;;;;;;;3.80;1.80;;;15.00;66.70;16.20;99135.00;;;;5041364;28;20267;-48
2022/11/23 08:19:03;;;;;;;4.70;1.90;;;15.00;66.70;16.20;99136.00;;;;5058373;28;20192;-50
2022/11/23 08:21:29;;;;;;;2.90;1.77;;;15.10;66.80;16.20;99140.00;;;;5059941;28;20165;-48
2022/11/23 08:23:55;;;;;;;2.57;1.57;;;15.20;66.90;16.30;99135.00;;;;5049505;28;20655;-50
2022/11/23 08:26:20;;;;;;;5.33;1.93;;;15.30;66.90;16.30;99144.00;;;;5049446;28;20651;-48
2022/11/23 08:28:47;;;;;;;4.63;1.93;;;15.40;66.90;16.40;99144.00;;;;5049244;28;20195;-50
2022/11/23 08:31:14;;;;;;;6.30;1.80;;;15.50;67.70;16.40;99140.00;;;;5048018;28;20198;-49
2022/11/23 08:33:39;;;;;;;5.87;2.10;;;15.70;66.90;16.50;99138.00;;;;5047989;28;20556;-51
2022/11/23 08:36:06;;;;;;;6.10;2.00;;;15.80;66.60;16.60;99136.00;;;;5048567;28;20186;-50
2022/11/23 08:38:33;;;;;;;3.60;1.93;;;15.90;66.20;16.70;99147.00;;;;5030652;28;20182;-51
2022/11/23 08:41:02;;;;;;;4.63;1.90;;;16.10;66.00;16.50;99141.00;;;;5042483;28;20635;-53
2022/11/23 08:43:28;;;;;;;3.00;1.90;;;16.30;65.80;16.90;99138.00;;;;5020907;28;20212;-51
2022/11/23 08:45:58;;;;;;;3.50;1.90;;;16.40;65.50;17.00;99147.00;;;;5068718;28;20654;-49
2022/11/23 08:48:24;;;;;;;4.40;2.00;;;16.60;65.60;17.10;99149.00;;;;5059510;28;20178;-50
2022/11/23 08:50:49;;;;;;;3.43;1.80;;;16.70;65.90;17.20;99145.00;;;;5068211;28;20803;-50
2022/11/23 08:53:15;;;;;;;3.63;1.67;;;16.90;65.00;17.30;99145.00;;;;5069206;28;20179;-52
2022/11/23 08:55:41;;;;;;;3.67;2.00;;;16.90;64.80;17.40;99155.00;;;;5068369;28;20229;-49
2022/11/23 08:58:07;;;;;;;2.83;1.80;;;17.10;64.70;17.50;99154.00;;;;5049952;28;20602;-48
2022/11/23 09:00:33;;;;;;;2.43;1.70;;;17.20;64.60;17.60;99153.00;;;;5052895;28;20221;-47
2022/11/23 09:02:59;;;;;;;3.17;1.80;;;17.20;64.50;17.70;99154.00;;;;5056926;28;20182;-49
2022/11/23 09:05:26;;;;;;;2.00;1.53;;;17.30;64.50;17.80;99147.00;;;;5048958;28;20210;-50
2022/11/23 09:07:51;;;;;;;2.63;1.80;;;17.30;64.50;17.90;99156.00;;;;5049070;28;20197;-50
2022/11/23 09:10:17;;;;;;;1.90;1.40;;;17.40;64.60;17.90;99157.00;;;;5030802;28;20178;-47
2022/11/23 09:12:43;;;;;;;3.07;2.10;;;17.50;64.60;18.00;99159.00;;;;5048743;28;20609;-49
2022/11/23 09:15:09;;;;;;;1.70;1.60;;;17.60;64.70;18.00;99152.00;;;;5048839;28;20256;-49
2022/11/23 09:17:35;;;;;;;7.27;2.00;;;17.60;64.60;18.10;99147.00;;;;5030852;28;20271;-49
2022/11/23 09:20:00;;;;;;;3.37;1.90;;;17.60;64.90;18.10;99147.00;;;;5048578;28;20180;-50
2022/11/23 09:22:26;;;;;;;2.33;1.73;;;17.60;65.00;18.20;99155.00;;;;5048321;28;20179;-49
2022/11/23 09:24:52;;;;;;;4.80;2.00;;;17.60;65.00;18.20;99150.00;;;;5048464;28;20204;-52
2022/11/23 09:27:18;;;;;;;3.43;1.90;;;17.60;65.00;18.20;99151.00;;;;5048378;28;20683;-51
2022/11/23 09:29:44;;;;;;;4.97;1.77;;;17.60;65.00;18.30;99157.00;;;;5030734;28;20243;-52
2022/11/23 09:32:10;;;;;;;3.77;1.90;;;17.70;65.00;18.30;99162.00;;;;5046558;28;20190;-48
2022/11/23 09:34:35;;;;;;;2.83;1.70;;;17.70;65.10;18.40;99166.00;;;;5047470;28;20238;-51
2022/11/23 09:37:01;;;;;;;2.10;1.80;;;17.70;64.90;18.40;99164.00;;;;5048418;28;20187;-49
2022/11/23 09:39:27;;;;;;;3.03;1.67;;;17.80;65.00;18.40;99172.00;;;;5056440;28;20196;-49
2022/11/23 09:42:42;;;;;;;2.83;1.67;;;17.80;65.00;18.40;99163.00;;;;4931956;28;20261;-48
2022/11/23 09:45:44;;;;;;;2.57;1.70;;;17.80;65.10;18.50;99164.00;;;;5048547;28;20691;-48
2022/11/23 09:49:00;;;;;;;3.57;1.80;;;17.80;65.10;18.50;99164.00;;;;5034081;28;20442;-49
2022/11/23 09:51:25;;;;;;;2.50;1.70;;;17.90;65.20;18.50;99148.00;;;;5031270;28;20508;-49
2022/11/23 09:53:59;;;;;;;2.90;1.80;;;17.80;65.00;18.50;99167.00;;;;5047465;28;20171;-50
2022/11/23 09:56:28;;;;;;;2.30;1.60;;;17.90;65.10;18.50;99179.00;;;;5030884;28;20666;-50
2022/11/23 09:58:56;;;;;;;3.63;1.90;;;17.90;65.10;18.50;99149.00;;;;5014903;28;20204;-51
2022/11/23 10:01:22;;;;;;;2.83;1.80;;;17.90;65.00;18.60;99175.00;;;;5014940;28;20183;-48
2022/11/23 10:03:48;;;;;;;3.33;1.90;;;17.90;65.10;18.60;99182.00;;;;5048697;28;20296;-49
2022/11/23 10:06:28;;;;;;;3.87;1.80;;;17.90;65.10;18.60;99172.00;;;;5031076;28;20192;-50
2022/11/23 10:09:27;;;;;;;2.20;1.63;;;18.00;65.20;18.60;99167.00;;;;5048532;28;20151;-51
2022/11/23 10:12:16;;;;;;;2.13;1.67;;;17.90;65.10;18.60;99160.00;;;;5034185;28;20224;-51
2022/11/23 10:15:28;;;;;;;2.50;1.70;;;17.90;65.10;18.70;99156.00;;;;5048121;28;20168;-51
2022/11/23 10:18:20;;;;;;;2.13;1.47;;;18.00;65.20;18.70;99157.00;;;;5016804;28;20224;-49
2022/11/23 10:21:02;;;;;;;2.17;1.73;;;18.00;65.20;18.70;99145.00;;;;5048724;28;20611;-48
2022/11/23 10:23:53;;;;;;;2.03;1.60;;;18.00;65.20;18.70;99164.00;;;;5015461;28;20254;-50
2022/11/23 10:26:30;;;;;;;2.43;1.63;;;17.90;65.20;18.70;99157.00;;;;5030627;28;20660;-49
2022/11/23 10:28:56;;;;;;;2.10;1.80;;;18.00;65.20;18.70;99151.00;;;;5015711;28;20274;-48
2022/11/23 10:31:22;;;;;;;2.53;1.80;;;18.00;65.10;18.70;99145.00;;;;5048239;28;20177;-51
2022/11/23 10:34:10;;;;;;;2.77;1.90;;;18.00;65.10;18.80;99134.00;;;;5048268;28;20182;-51
2022/11/23 10:36:37;;;;;;;2.20;1.60;;;18.10;65.20;18.80;99146.00;;;;5031045;28;20197;-52
2022/11/23 10:39:16;;;;;;;2.30;1.70;;;18.00;65.20;18.80;99144.00;;;;5030932;28;20176;-50
2022/11/23 10:41:43;;;;;;;1.93;1.70;;;18.10;65.30;18.80;99142.00;;;;5032349;28;20194;-50
2022/11/23 10:44:30;;;;;;;3.43;1.50;;;18.00;65.20;18.80;99146.00;;;;5032115;28;20205;-49
2022/11/23 10:46:56;;;;;;;2.43;1.63;;;18.00;65.30;18.80;99143.00;;;;5018865;28;20334;-49
2022/11/23 10:49:32;;;;;;;2.13;1.73;;;18.00;65.30;18.80;99127.00;;;;5051799;28;20240;-50
2022/11/23 10:52:04;;;;;;;2.30;1.70;;;18.10;65.30;18.80;99114.00;;;;5051967;28;20169;-51
2022/11/23 10:54:46;;;;;;;2.60;1.70;;;18.00;65.10;18.80;99127.00;;;;5034172;28;20365;-50
2022/11/23 10:57:35;;;;;;;2.77;1.70;;;18.10;65.30;18.80;99106.00;;;;5051895;28;20169;-50
2022/11/23 11:00:14;;;;;;;1.90;1.63;;;18.10;65.20;18.80;99113.00;;;;5051832;28;20158;-50